sensor_id;sensor_type;location;lat;lon;timestamp;P1;durP1;ratioP1;P2;durP2;ratioP2
50104;SDS011;47690;39.202;-77.198;2024-02-21T00:01:30;2.90;;;2.40;;
50104;SDS011;47690;39.202;-77.198;2024-02-21T00:04:00;2.78;;;2.47;;
50104;SDS011;47690;39.202;-77.198;2024-02-21T00:06:29;3.55;;;2.50;;
50104;SDS011;47690;39.202;-77.198;2024-02-21T00:08:59;2.90;;;2.53;;
50104;SDS011;47690;39.202;-77.198;2024-02-21T00:11:29;3.30;;;2.40;;
50104;SDS011;47690;39.202;-77.198;2024-02-21T00:13:57;3.95;;;2.45;;
50104;SDS011;47690;39.202;-77.198;2024-02-21T00:16:27;3.13;;;2.60;;
50104;SDS011;47690;39.202;-77.198;2024-02-21T00:18:56;3.30;;;2.60;;
50104;SDS011;47690;39.202;-77.198;2024-02-21T00:21:24;3.10;;;2.42;;
50104;SDS011;47690;39.202;-77.198;2024-02-21T00:23:53;3.38;;;2.70;;
50104;SDS011;47690;39.202;-77.198;2024-02-21T00:26:21;3.13;;;2.65;;
50104;SDS011;47690;39.202;-77.198;2024-02-21T00:28:49;2.85;;;2.33;;
50104;SDS011;47690;39.202;-77.198;2024-02-21T00:31:19;3.33;;;2.60;;
50104;SDS011;47690;39.202;-77.198;2024-02-21T00:33:49;3.08;;;2.67;;
50104;SDS011;47690;39.202;-77.198;2024-02-21T00:36:18;3.35;;;2.88;;
50104;SDS011;47690;39.202;-77.198;2024-02-21T00:38:46;3.58;;;2.60;;
50104;SDS011;47690;39.202;-77.198;2024-02-21T00:41:15;3.72;;;2.80;;
50104;SDS011;47690;39.202;-77.198;2024-02-21T00:43:44;3.42;;;2.60;;
50104;SDS011;47690;39.202;-77.198;2024-02-21T00:46:13;3.58;;;2.50;;
50104;SDS011;47690;39.202;-77.198;2024-02-21T00:48:41;2.83;;;2.50;;
50104;SDS011;47690;39.202;-77.198;2024-02-21T00:51:10;3.30;;;2.60;;
50104;SDS011;47690;39.202;-77.198;2024-02-21T00:53:38;2.85;;;2.35;;
50104;SDS011;47690;39.202;-77.198;2024-02-21T00:56:06;2.90;;;2.33;;
50104;SDS011;47690;39.202;-77.198;2024-02-21T00:58:35;3.08;;;2.30;;
50104;SDS011;47690;39.202;-77.198;2024-02-21T01:01:03;4.47;;;2.78;;
50104;SDS011;47690;39.202;-77.198;2024-02-21T01:03:34;2.80;;;2.40;;
50104;SDS011;47690;39.202;-77.198;2024-02-21T01:06:04;3.42;;;2.67;;
50104;SDS011;47690;39.202;-77.198;2024-02-21T01:08:33;3.60;;;2.60;;
50104;SDS011;47690;39.202;-77.198;2024-02-21T01:11:02;3.42;;;2.55;;
50104;SDS011;47690;39.202;-77.198;2024-02-21T01:13:33;3.00;;;2.50;;
50104;SDS011;47690;39.202;-77.198;2024-02-21T01:16:01;3.25;;;2.47;;
50104;SDS011;47690;39.202;-77.198;2024-02-21T01:18:31;4.30;;;2.70;;
50104;SDS011;47690;39.202;-77.198;2024-02-21T01:21:06;4.50;;;2.90;;
50104;SDS011;47690;39.202;-77.198;2024-02-21T01:23:35;3.90;;;2.92;;
50104;SDS011;47690;39.202;-77.198;2024-02-21T01:26:05;3.25;;;2.60;;
50104;SDS011;47690;39.202;-77.198;2024-02-21T01:28:35;3.67;;;2.70;;
50104;SDS011;47690;39.202;-77.198;2024-02-21T01:31:07;4.38;;;2.90;;
50104;SDS011;47690;39.202;-77.198;2024-02-21T01:33:36;3.63;;;2.78;;
50104;SDS011;47690;39.202;-77.198;2024-02-21T01:36:06;3.40;;;2.78;;
50104;SDS011;47690;39.202;-77.198;2024-02-21T01:38:35;3.60;;;3.10;;
50104;SDS011;47690;39.202;-77.198;2024-02-21T01:41:04;3.92;;;2.63;;
50104;SDS011;47690;39.202;-77.198;2024-02-21T01:43:34;3.75;;;2.70;;
50104;SDS011;47690;39.202;-77.198;2024-02-21T01:46:04;3.70;;;2.60;;
50104;SDS011;47690;39.202;-77.198;2024-02-21T01:48:33;3.33;;;2.67;;
50104;SDS011;47690;39.202;-77.198;2024-02-21T01:51:04;3.35;;;2.40;;
50104;SDS011;47690;39.202;-77.198;2024-02-21T01:53:38;3.10;;;2.53;;
50104;SDS011;47690;39.202;-77.198;2024-02-21T01:56:12;2.67;;;2.40;;
50104;SDS011;47690;39.202;-77.198;2024-02-21T01:58:41;4.03;;;2.63;;
50104;SDS011;47690;39.202;-77.198;2024-02-21T02:01:10;3.42;;;2.50;;
50104;SDS011;47690;39.202;-77.198;2024-02-21T02:03:42;3.15;;;2.50;;
50104;SDS011;47690;39.202;-77.198;2024-02-21T02:06:13;3.15;;;2.40;;
50104;SDS011;47690;39.202;-77.198;2024-02-21T02:08:42;3.22;;;2.60;;
50104;SDS011;47690;39.202;-77.198;2024-02-21T02:11:10;3.05;;;2.60;;
50104;SDS011;47690;39.202;-77.198;2024-02-21T02:13:42;3.72;;;2.50;;
50104;SDS011;47690;39.202;-77.198;2024-02-21T02:16:10;3.85;;;2.90;;
50104;SDS011;47690;39.202;-77.198;2024-02-21T02:18:38;3.85;;;3.10;;
50104;SDS011;47690;39.202;-77.198;2024-02-21T02:21:09;3.50;;;2.75;;
50104;SDS011;47690;39.202;-77.198;2024-02-21T02:23:41;3.60;;;2.80;;
50104;SDS011;47690;39.202;-77.198;2024-02-21T02:26:10;3.42;;;2.67;;
50104;SDS011;47690;39.202;-77.198;2024-02-21T02:28:39;3.20;;;2.70;;
50104;SDS011;47690;39.202;-77.198;2024-02-21T02:31:07;3.90;;;2.80;;
50104;SDS011;47690;39.202;-77.198;2024-02-21T02:33:39;4.32;;;3.05;;
50104;SDS011;47690;39.202;-77.198;2024-02-21T02:36:10;4.68;;;2.95;;
50104;SDS011;47690;39.202;-77.198;2024-02-21T02:38:38;4.95;;;3.13;;
50104;SDS011;47690;39.202;-77.198;2024-02-21T02:41:07;4.20;;;3.03;;
50104;SDS011;47690;39.202;-77.198;2024-02-21T02:43:35;3.60;;;3.00;;
50104;SDS011;47690;39.202;-77.198;2024-02-21T02:46:04;4.38;;;2.88;;
50104;SDS011;47690;39.202;-77.198;2024-02-21T02:48:34;4.47;;;3.05;;
50104;SDS011;47690;39.202;-77.198;2024-02-21T02:51:04;4.10;;;3.08;;
50104;SDS011;47690;39.202;-77.198;2024-02-21T02:53:33;5.00;;;3.00;;
50104;SDS011;47690;39.202;-77.198;2024-02-21T02:56:04;4.28;;;3.08;;
50104;SDS011;47690;39.202;-77.198;2024-02-21T02:58:34;3.00;;;2.63;;
50104;SDS011;47690;39.202;-77.198;2024-02-21T03:01:06;2.72;;;2.35;;
50104;SDS011;47690;39.202;-77.198;2024-02-21T03:03:43;2.80;;;2.25;;
50104;SDS011;47690;39.202;-77.198;2024-02-21T03:06:16;2.70;;;2.30;;
50104;SDS011;47690;39.202;-77.198;2024-02-21T03:08:45;2.78;;;2.20;;
50104;SDS011;47690;39.202;-77.198;2024-02-21T03:11:17;2.72;;;2.30;;
50104;SDS011;47690;39.202;-77.198;2024-02-21T03:13:48;3.65;;;2.38;;
50104;SDS011;47690;39.202;-77.198;2024-02-21T03:16:18;3.05;;;2.75;;
50104;SDS011;47690;39.202;-77.198;2024-02-21T03:18:48;2.65;;;2.38;;
50104;SDS011;47690;39.202;-77.198;2024-02-21T03:21:18;3.50;;;2.53;;
50104;SDS011;47690;39.202;-77.198;2024-02-21T03:23:47;3.33;;;2.80;;
50104;SDS011;47690;39.202;-77.198;2024-02-21T03:26:15;3.35;;;2.58;;
50104;SDS011;47690;39.202;-77.198;2024-02-21T03:28:44;3.33;;;2.15;;
50104;SDS011;47690;39.202;-77.198;2024-02-21T03:31:15;2.90;;;2.38;;
50104;SDS011;47690;39.202;-77.198;2024-02-21T03:33:46;2.92;;;2.40;;
50104;SDS011;47690;39.202;-77.198;2024-02-21T03:36:15;3.00;;;2.47;;
50104;SDS011;47690;39.202;-77.198;2024-02-21T03:38:43;2.60;;;2.13;;
50104;SDS011;47690;39.202;-77.198;2024-02-21T03:41:12;3.13;;;2.50;;
50104;SDS011;47690;39.202;-77.198;2024-02-21T03:43:41;3.30;;;2.58;;
50104;SDS011;47690;39.202;-77.198;2024-02-21T03:46:09;3.08;;;2.60;;
50104;SDS011;47690;39.202;-77.198;2024-02-21T03:48:39;3.28;;;2.40;;
50104;SDS011;47690;39.202;-77.198;2024-02-21T03:51:09;2.80;;;2.33;;
50104;SDS011;47690;39.202;-77.198;2024-02-21T03:53:37;4.15;;;2.30;;
50104;SDS011;47690;39.202;-77.198;2024-02-21T03:56:05;2.95;;;2.33;;
50104;SDS011;47690;39.202;-77.198;2024-02-21T03:58:36;3.45;;;2.45;;
50104;SDS011;47690;39.202;-77.198;2024-02-21T04:01:04;2.30;;;2.10;;
50104;SDS011;47690;39.202;-77.198;2024-02-21T04:03:34;2.88;;;2.40;;
50104;SDS011;47690;39.202;-77.198;2024-02-21T04:06:03;2.97;;;2.40;;
50104;SDS011;47690;39.202;-77.198;2024-02-21T04:08:34;3.58;;;2.38;;
50104;SDS011;47690;39.202;-77.198;2024-02-21T04:11:02;3.42;;;2.47;;
50104;SDS011;47690;39.202;-77.198;2024-02-21T04:13:33;2.97;;;2.60;;
50104;SDS011;47690;39.202;-77.198;2024-02-21T04:16:02;3.60;;;2.60;;
50104;SDS011;47690;39.202;-77.198;2024-02-21T04:18:35;2.60;;;2.22;;
50104;SDS011;47690;39.202;-77.198;2024-02-21T04:21:04;3.03;;;2.33;;
50104;SDS011;47690;39.202;-77.198;2024-02-21T04:23:34;2.60;;;2.20;;
50104;SDS011;47690;39.202;-77.198;2024-02-21T04:26:04;2.92;;;2.35;;
50104;SDS011;47690;39.202;-77.198;2024-02-21T04:28:35;2.50;;;2.30;;
50104;SDS011;47690;39.202;-77.198;2024-02-21T04:31:06;2.72;;;2.20;;
50104;SDS011;47690;39.202;-77.198;2024-02-21T04:33:37;4.87;;;2.53;;
50104;SDS011;47690;39.202;-77.198;2024-02-21T04:36:06;3.63;;;2.50;;
50104;SDS011;47690;39.202;-77.198;2024-02-21T04:38:34;3.08;;;2.40;;
50104;SDS011;47690;39.202;-77.198;2024-02-21T04:41:04;3.15;;;2.50;;
50104;SDS011;47690;39.202;-77.198;2024-02-21T04:43:34;3.83;;;2.38;;
50104;SDS011;47690;39.202;-77.198;2024-02-21T04:46:04;3.00;;;2.40;;
50104;SDS011;47690;39.202;-77.198;2024-02-21T04:48:34;2.83;;;2.30;;
50104;SDS011;47690;39.202;-77.198;2024-02-21T04:51:05;2.92;;;2.30;;
50104;SDS011;47690;39.202;-77.198;2024-02-21T04:53:35;3.00;;;2.33;;
50104;SDS011;47690;39.202;-77.198;2024-02-21T04:56:04;2.90;;;2.40;;
50104;SDS011;47690;39.202;-77.198;2024-02-21T04:58:37;3.17;;;2.53;;
50104;SDS011;47690;39.202;-77.198;2024-02-21T05:01:07;4.97;;;2.30;;
50104;SDS011;47690;39.202;-77.198;2024-02-21T05:03:35;2.97;;;2.30;;
50104;SDS011;47690;39.202;-77.198;2024-02-21T05:06:04;3.15;;;2.50;;
50104;SDS011;47690;39.202;-77.198;2024-02-21T05:08:36;3.92;;;2.63;;
50104;SDS011;47690;39.202;-77.198;2024-02-21T05:11:04;3.28;;;2.60;;
50104;SDS011;47690;39.202;-77.198;2024-02-21T05:13:34;6.00;;;2.80;;
50104;SDS011;47690;39.202;-77.198;2024-02-21T05:16:04;3.05;;;2.40;;
50104;SDS011;47690;39.202;-77.198;2024-02-21T05:18:34;2.80;;;2.30;;
50104;SDS011;47690;39.202;-77.198;2024-02-21T05:21:04;2.63;;;2.33;;
50104;SDS011;47690;39.202;-77.198;2024-02-21T05:23:33;3.58;;;2.50;;
50104;SDS011;47690;39.202;-77.198;2024-02-21T05:26:02;3.35;;;2.80;;
50104;SDS011;47690;39.202;-77.198;2024-02-21T05:28:34;3.22;;;2.50;;
50104;SDS011;47690;39.202;-77.198;2024-02-21T05:31:04;3.05;;;2.30;;
50104;SDS011;47690;39.202;-77.198;2024-02-21T05:33:34;3.38;;;2.58;;
50104;SDS011;47690;39.202;-77.198;2024-02-21T05:36:04;4.50;;;2.40;;
50104;SDS011;47690;39.202;-77.198;2024-02-21T05:38:33;3.40;;;2.80;;
50104;SDS011;47690;39.202;-77.198;2024-02-21T05:41:04;4.72;;;3.05;;
50104;SDS011;47690;39.202;-77.198;2024-02-21T05:46:06;3.67;;;2.70;;
50104;SDS011;47690;39.202;-77.198;2024-02-21T05:48:34;3.10;;;2.70;;
50104;SDS011;47690;39.202;-77.198;2024-02-21T05:51:06;4.90;;;3.05;;
50104;SDS011;47690;39.202;-77.198;2024-02-21T05:53:37;3.05;;;2.58;;
50104;SDS011;47690;39.202;-77.198;2024-02-21T05:56:11;2.60;;;2.38;;
50104;SDS011;47690;39.202;-77.198;2024-02-21T05:58:40;2.78;;;2.38;;
50104;SDS011;47690;39.202;-77.198;2024-02-21T06:01:09;2.47;;;2.28;;
50104;SDS011;47690;39.202;-77.198;2024-02-21T06:03:38;3.13;;;2.30;;
50104;SDS011;47690;39.202;-77.198;2024-02-21T06:06:07;3.80;;;2.42;;
50104;SDS011;47690;39.202;-77.198;2024-02-21T06:08:35;3.05;;;2.40;;
50104;SDS011;47690;39.202;-77.198;2024-02-21T06:11:05;2.58;;;2.20;;
50104;SDS011;47690;39.202;-77.198;2024-02-21T06:13:37;2.80;;;2.30;;
50104;SDS011;47690;39.202;-77.198;2024-02-21T06:16:08;2.70;;;2.30;;
50104;SDS011;47690;39.202;-77.198;2024-02-21T06:18:38;3.10;;;2.25;;
50104;SDS011;47690;39.202;-77.198;2024-02-21T06:21:07;3.10;;;2.40;;
50104;SDS011;47690;39.202;-77.198;2024-02-21T06:23:36;3.38;;;2.50;;
50104;SDS011;47690;39.202;-77.198;2024-02-21T06:26:05;2.80;;;2.33;;
50104;SDS011;47690;39.202;-77.198;2024-02-21T06:28:33;2.63;;;2.35;;
50104;SDS011;47690;39.202;-77.198;2024-02-21T06:31:15;2.38;;;2.15;;
50104;SDS011;47690;39.202;-77.198;2024-02-21T06:33:44;3.30;;;2.40;;
50104;SDS011;47690;39.202;-77.198;2024-02-21T06:36:14;2.63;;;2.28;;
50104;SDS011;47690;39.202;-77.198;2024-02-21T06:38:42;2.88;;;2.30;;
50104;SDS011;47690;39.202;-77.198;2024-02-21T06:41:18;2.65;;;2.22;;
50104;SDS011;47690;39.202;-77.198;2024-02-21T06:43:47;2.55;;;2.10;;
50104;SDS011;47690;39.202;-77.198;2024-02-21T06:46:23;2.70;;;2.00;;
50104;SDS011;47690;39.202;-77.198;2024-02-21T06:49:02;2.60;;;2.10;;
50104;SDS011;47690;39.202;-77.198;2024-02-21T06:51:34;2.75;;;2.20;;
50104;SDS011;47690;39.202;-77.198;2024-02-21T06:54:04;2.80;;;2.35;;
50104;SDS011;47690;39.202;-77.198;2024-02-21T06:56:34;3.58;;;2.40;;
50104;SDS011;47690;39.202;-77.198;2024-02-21T06:59:05;3.58;;;1.95;;
50104;SDS011;47690;39.202;-77.198;2024-02-21T07:01:34;3.38;;;2.30;;
50104;SDS011;47690;39.202;-77.198;2024-02-21T07:04:05;2.50;;;2.17;;
50104;SDS011;47690;39.202;-77.198;2024-02-21T07:06:36;2.95;;;2.28;;
50104;SDS011;47690;39.202;-77.198;2024-02-21T07:09:05;3.45;;;2.40;;
50104;SDS011;47690;39.202;-77.198;2024-02-21T07:11:34;2.92;;;2.53;;
50104;SDS011;47690;39.202;-77.198;2024-02-21T07:14:05;2.40;;;2.20;;
50104;SDS011;47690;39.202;-77.198;2024-02-21T07:16:34;4.22;;;2.40;;
50104;SDS011;47690;39.202;-77.198;2024-02-21T07:19:04;2.60;;;2.30;;
50104;SDS011;47690;39.202;-77.198;2024-02-21T07:21:34;3.53;;;2.58;;
50104;SDS011;47690;39.202;-77.198;2024-02-21T07:24:04;3.65;;;2.30;;
50104;SDS011;47690;39.202;-77.198;2024-02-21T07:26:35;4.30;;;2.47;;
50104;SDS011;47690;39.202;-77.198;2024-02-21T07:29:05;2.63;;;2.22;;
50104;SDS011;47690;39.202;-77.198;2024-02-21T07:31:42;4.28;;;2.63;;
50104;SDS011;47690;39.202;-77.198;2024-02-21T07:34:11;3.53;;;2.33;;
50104;SDS011;47690;39.202;-77.198;2024-02-21T07:36:40;3.70;;;2.50;;
50104;SDS011;47690;39.202;-77.198;2024-02-21T07:39:10;3.28;;;2.45;;
50104;SDS011;47690;39.202;-77.198;2024-02-21T07:41:39;4.28;;;2.70;;
50104;SDS011;47690;39.202;-77.198;2024-02-21T07:44:09;2.70;;;2.15;;
50104;SDS011;47690;39.202;-77.198;2024-02-21T07:46:37;2.63;;;2.25;;
50104;SDS011;47690;39.202;-77.198;2024-02-21T07:49:06;3.10;;;2.60;;
50104;SDS011;47690;39.202;-77.198;2024-02-21T07:51:34;3.40;;;2.47;;
50104;SDS011;47690;39.202;-77.198;2024-02-21T07:54:05;2.72;;;2.30;;
50104;SDS011;47690;39.202;-77.198;2024-02-21T07:56:36;3.05;;;2.50;;
50104;SDS011;47690;39.202;-77.198;2024-02-21T07:59:04;3.03;;;2.22;;
50104;SDS011;47690;39.202;-77.198;2024-02-21T08:01:35;2.72;;;2.38;;
50104;SDS011;47690;39.202;-77.198;2024-02-21T08:04:05;4.20;;;2.72;;
50104;SDS011;47690;39.202;-77.198;2024-02-21T08:06:34;3.83;;;2.25;;
50104;SDS011;47690;39.202;-77.198;2024-02-21T08:09:04;2.80;;;2.20;;
50104;SDS011;47690;39.202;-77.198;2024-02-21T08:11:34;2.63;;;2.20;;
50104;SDS011;47690;39.202;-77.198;2024-02-21T08:14:03;3.20;;;2.25;;
50104;SDS011;47690;39.202;-77.198;2024-02-21T08:16:34;2.72;;;2.22;;
50104;SDS011;47690;39.202;-77.198;2024-02-21T08:19:06;2.20;;;1.92;;
50104;SDS011;47690;39.202;-77.198;2024-02-21T08:21:35;2.72;;;2.30;;
50104;SDS011;47690;39.202;-77.198;2024-02-21T08:24:05;2.67;;;2.38;;
50104;SDS011;47690;39.202;-77.198;2024-02-21T08:26:39;2.72;;;2.30;;
50104;SDS011;47690;39.202;-77.198;2024-02-21T08:29:12;2.75;;;2.20;;
50104;SDS011;47690;39.202;-77.198;2024-02-21T08:31:41;2.47;;;2.00;;
50104;SDS011;47690;39.202;-77.198;2024-02-21T08:34:11;2.30;;;1.85;;
50104;SDS011;47690;39.202;-77.198;2024-02-21T08:36:41;2.13;;;1.92;;
50104;SDS011;47690;39.202;-77.198;2024-02-21T08:39:09;2.97;;;2.20;;
50104;SDS011;47690;39.202;-77.198;2024-02-21T08:41:38;3.17;;;2.33;;
50104;SDS011;47690;39.202;-77.198;2024-02-21T08:44:23;3.05;;;2.22;;
50104;SDS011;47690;39.202;-77.198;2024-02-21T08:46:56;2.58;;;2.10;;
50104;SDS011;47690;39.202;-77.198;2024-02-21T08:49:24;2.30;;;2.10;;
50104;SDS011;47690;39.202;-77.198;2024-02-21T08:52:01;2.97;;;2.42;;
50104;SDS011;47690;39.202;-77.198;2024-02-21T08:54:35;2.80;;;2.40;;
50104;SDS011;47690;39.202;-77.198;2024-02-21T08:57:04;2.95;;;2.47;;
50104;SDS011;47690;39.202;-77.198;2024-02-21T08:59:34;2.15;;;1.95;;
50104;SDS011;47690;39.202;-77.198;2024-02-21T09:02:04;2.55;;;2.10;;
50104;SDS011;47690;39.202;-77.198;2024-02-21T09:04:34;2.65;;;2.33;;
50104;SDS011;47690;39.202;-77.198;2024-02-21T09:07:04;3.55;;;2.40;;
50104;SDS011;47690;39.202;-77.198;2024-02-21T09:09:34;2.55;;;2.30;;
50104;SDS011;47690;39.202;-77.198;2024-02-21T09:12:06;2.40;;;2.20;;
50104;SDS011;47690;39.202;-77.198;2024-02-21T09:14:37;3.28;;;2.30;;
50104;SDS011;47690;39.202;-77.198;2024-02-21T09:17:08;2.33;;;2.13;;
50104;SDS011;47690;39.202;-77.198;2024-02-21T09:19:37;2.60;;;2.15;;
50104;SDS011;47690;39.202;-77.198;2024-02-21T09:22:06;2.80;;;2.10;;
50104;SDS011;47690;39.202;-77.198;2024-02-21T09:24:36;2.70;;;2.10;;
50104;SDS011;47690;39.202;-77.198;2024-02-21T09:27:04;2.30;;;2.10;;
50104;SDS011;47690;39.202;-77.198;2024-02-21T09:29:33;2.03;;;1.90;;
50104;SDS011;47690;39.202;-77.198;2024-02-21T09:32:04;2.00;;;1.80;;
50104;SDS011;47690;39.202;-77.198;2024-02-21T09:34:33;2.33;;;1.90;;
50104;SDS011;47690;39.202;-77.198;2024-02-21T09:37:04;2.33;;;2.10;;
50104;SDS011;47690;39.202;-77.198;2024-02-21T09:39:33;2.40;;;2.15;;
50104;SDS011;47690;39.202;-77.198;2024-02-21T09:42:07;2.70;;;1.80;;
50104;SDS011;47690;39.202;-77.198;2024-02-21T09:44:39;3.83;;;2.00;;
50104;SDS011;47690;39.202;-77.198;2024-02-21T09:47:12;2.45;;;2.13;;
50104;SDS011;47690;39.202;-77.198;2024-02-21T09:49:44;1.95;;;1.83;;
50104;SDS011;47690;39.202;-77.198;2024-02-21T09:52:14;2.85;;;2.20;;
50104;SDS011;47690;39.202;-77.198;2024-02-21T09:54:46;2.80;;;2.38;;
50104;SDS011;47690;39.202;-77.198;2024-02-21T09:57:16;2.97;;;2.20;;
50104;SDS011;47690;39.202;-77.198;2024-02-21T09:59:45;2.60;;;2.40;;
50104;SDS011;47690;39.202;-77.198;2024-02-21T10:02:14;2.60;;;2.40;;
50104;SDS011;47690;39.202;-77.198;2024-02-21T10:04:43;2.53;;;2.17;;
50104;SDS011;47690;39.202;-77.198;2024-02-21T10:07:12;2.53;;;2.20;;
50104;SDS011;47690;39.202;-77.198;2024-02-21T10:09:41;2.35;;;2.08;;
50104;SDS011;47690;39.202;-77.198;2024-02-21T10:12:13;2.80;;;1.98;;
50104;SDS011;47690;39.202;-77.198;2024-02-21T10:14:42;3.17;;;2.40;;
50104;SDS011;47690;39.202;-77.198;2024-02-21T10:17:15;2.20;;;2.00;;
50104;SDS011;47690;39.202;-77.198;2024-02-21T10:19:48;3.25;;;2.22;;
50104;SDS011;47690;39.202;-77.198;2024-02-21T10:22:18;2.05;;;1.80;;
50104;SDS011;47690;39.202;-77.198;2024-02-21T10:24:48;2.30;;;1.98;;
50104;SDS011;47690;39.202;-77.198;2024-02-21T10:27:17;2.72;;;2.08;;
50104;SDS011;47690;39.202;-77.198;2024-02-21T10:29:49;2.67;;;2.00;;
50104;SDS011;47690;39.202;-77.198;2024-02-21T10:32:21;3.15;;;2.30;;
50104;SDS011;47690;39.202;-77.198;2024-02-21T10:35:00;3.70;;;2.40;;
50104;SDS011;47690;39.202;-77.198;2024-02-21T10:37:34;2.75;;;2.10;;
50104;SDS011;47690;39.202;-77.198;2024-02-21T10:40:04;2.67;;;2.20;;
50104;SDS011;47690;39.202;-77.198;2024-02-21T10:42:35;3.13;;;1.90;;
50104;SDS011;47690;39.202;-77.198;2024-02-21T10:45:05;2.35;;;2.10;;
50104;SDS011;47690;39.202;-77.198;2024-02-21T10:47:38;2.40;;;2.20;;
50104;SDS011;47690;39.202;-77.198;2024-02-21T10:50:10;3.22;;;2.03;;
50104;SDS011;47690;39.202;-77.198;2024-02-21T10:52:51;2.20;;;2.00;;
50104;SDS011;47690;39.202;-77.198;2024-02-21T10:55:33;2.00;;;1.90;;
50104;SDS011;47690;39.202;-77.198;2024-02-21T10:58:09;2.33;;;2.13;;
50104;SDS011;47690;39.202;-77.198;2024-02-21T11:00:38;1.98;;;1.80;;
50104;SDS011;47690;39.202;-77.198;2024-02-21T11:03:08;3.50;;;2.10;;
50104;SDS011;47690;39.202;-77.198;2024-02-21T11:05:37;2.47;;;2.00;;
50104;SDS011;47690;39.202;-77.198;2024-02-21T11:08:08;2.53;;;1.80;;
50104;SDS011;47690;39.202;-77.198;2024-02-21T11:10:38;3.33;;;2.38;;
50104;SDS011;47690;39.202;-77.198;2024-02-21T11:13:09;2.40;;;2.10;;
50104;SDS011;47690;39.202;-77.198;2024-02-21T11:15:38;2.72;;;2.00;;
50104;SDS011;47690;39.202;-77.198;2024-02-21T11:18:09;2.45;;;2.00;;
50104;SDS011;47690;39.202;-77.198;2024-02-21T11:20:38;2.72;;;2.30;;
50104;SDS011;47690;39.202;-77.198;2024-02-21T11:23:07;3.75;;;2.00;;
50104;SDS011;47690;39.202;-77.198;2024-02-21T11:25:36;2.70;;;2.13;;
50104;SDS011;47690;39.202;-77.198;2024-02-21T11:28:07;2.63;;;2.05;;
50104;SDS011;47690;39.202;-77.198;2024-02-21T11:30:40;2.28;;;2.00;;
50104;SDS011;47690;39.202;-77.198;2024-02-21T11:33:11;2.53;;;1.90;;
50104;SDS011;47690;39.202;-77.198;2024-02-21T11:35:43;2.20;;;1.90;;
50104;SDS011;47690;39.202;-77.198;2024-02-21T11:38:11;2.40;;;2.10;;
50104;SDS011;47690;39.202;-77.198;2024-02-21T11:40:45;2.50;;;2.20;;
50104;SDS011;47690;39.202;-77.198;2024-02-21T11:43:15;3.13;;;2.10;;
50104;SDS011;47690;39.202;-77.198;2024-02-21T11:45:44;2.15;;;1.95;;
50104;SDS011;47690;39.202;-77.198;2024-02-21T11:48:13;2.28;;;2.08;;
50104;SDS011;47690;39.202;-77.198;2024-02-21T11:50:42;2.85;;;2.20;;
50104;SDS011;47690;39.202;-77.198;2024-02-21T11:53:22;2.25;;;2.00;;
50104;SDS011;47690;39.202;-77.198;2024-02-21T11:55:51;2.80;;;2.10;;
50104;SDS011;47690;39.202;-77.198;2024-02-21T11:58:20;3.40;;;2.17;;
50104;SDS011;47690;39.202;-77.198;2024-02-21T12:00:48;2.53;;;2.08;;
50104;SDS011;47690;39.202;-77.198;2024-02-21T12:03:17;2.53;;;2.20;;
50104;SDS011;47690;39.202;-77.198;2024-02-21T12:05:45;2.13;;;1.80;;
50104;SDS011;47690;39.202;-77.198;2024-02-21T12:08:14;3.60;;;2.20;;
50104;SDS011;47690;39.202;-77.198;2024-02-21T12:10:44;2.28;;;2.08;;
50104;SDS011;47690;39.202;-77.198;2024-02-21T12:13:22;2.20;;;2.00;;
50104;SDS011;47690;39.202;-77.198;2024-02-21T12:15:52;2.28;;;2.08;;
50104;SDS011;47690;39.202;-77.198;2024-02-21T12:18:21;2.70;;;2.08;;
50104;SDS011;47690;39.202;-77.198;2024-02-21T12:20:49;2.50;;;2.03;;
50104;SDS011;47690;39.202;-77.198;2024-02-21T12:23:19;2.30;;;2.10;;
50104;SDS011;47690;39.202;-77.198;2024-02-21T12:25:47;2.78;;;2.30;;
50104;SDS011;47690;39.202;-77.198;2024-02-21T12:28:15;3.78;;;2.20;;
50104;SDS011;47690;39.202;-77.198;2024-02-21T12:30:45;2.63;;;2.30;;
50104;SDS011;47690;39.202;-77.198;2024-02-21T12:33:14;2.88;;;2.33;;
50104;SDS011;47690;39.202;-77.198;2024-02-21T12:35:43;3.17;;;2.28;;
50104;SDS011;47690;39.202;-77.198;2024-02-21T12:38:12;2.85;;;2.15;;
50104;SDS011;47690;39.202;-77.198;2024-02-21T12:40:41;2.92;;;2.40;;
50104;SDS011;47690;39.202;-77.198;2024-02-21T12:43:10;3.15;;;2.30;;
50104;SDS011;47690;39.202;-77.198;2024-02-21T12:45:38;2.90;;;2.30;;
50104;SDS011;47690;39.202;-77.198;2024-02-21T12:48:07;2.92;;;2.22;;
50104;SDS011;47690;39.202;-77.198;2024-02-21T12:50:35;2.80;;;2.28;;
50104;SDS011;47690;39.202;-77.198;2024-02-21T12:53:04;3.72;;;2.35;;
50104;SDS011;47690;39.202;-77.198;2024-02-21T12:55:43;2.60;;;2.05;;
50104;SDS011;47690;39.202;-77.198;2024-02-21T12:58:12;3.67;;;2.40;;
50104;SDS011;47690;39.202;-77.198;2024-02-21T13:00:41;2.30;;;2.03;;
50104;SDS011;47690;39.202;-77.198;2024-02-21T13:03:11;3.22;;;2.30;;
50104;SDS011;47690;39.202;-77.198;2024-02-21T13:05:40;3.55;;;2.15;;
50104;SDS011;47690;39.202;-77.198;2024-02-21T13:08:08;3.63;;;2.30;;
50104;SDS011;47690;39.202;-77.198;2024-02-21T13:10:38;4.43;;;2.60;;
50104;SDS011;47690;39.202;-77.198;2024-02-21T13:13:06;3.58;;;2.50;;
50104;SDS011;47690;39.202;-77.198;2024-02-21T13:15:34;3.35;;;2.55;;
50104;SDS011;47690;39.202;-77.198;2024-02-21T13:18:05;3.25;;;2.50;;
50104;SDS011;47690;39.202;-77.198;2024-02-21T13:20:35;2.78;;;2.30;;
50104;SDS011;47690;39.202;-77.198;2024-02-21T13:23:04;2.85;;;2.30;;
50104;SDS011;47690;39.202;-77.198;2024-02-21T13:25:34;2.72;;;2.30;;
50104;SDS011;47690;39.202;-77.198;2024-02-21T13:28:05;2.90;;;2.17;;
50104;SDS011;47690;39.202;-77.198;2024-02-21T13:30:35;3.00;;;2.35;;
50104;SDS011;47690;39.202;-77.198;2024-02-21T13:33:06;3.00;;;2.22;;
50104;SDS011;47690;39.202;-77.198;2024-02-21T13:35:35;2.83;;;2.30;;
50104;SDS011;47690;39.202;-77.198;2024-02-21T13:38:04;2.60;;;2.13;;
50104;SDS011;47690;39.202;-77.198;2024-02-21T13:40:34;3.50;;;2.30;;
50104;SDS011;47690;39.202;-77.198;2024-02-21T13:43:04;3.40;;;2.50;;
50104;SDS011;47690;39.202;-77.198;2024-02-21T13:45:35;3.58;;;2.50;;
50104;SDS011;47690;39.202;-77.198;2024-02-21T13:48:05;3.78;;;2.53;;
50104;SDS011;47690;39.202;-77.198;2024-02-21T13:50:35;3.50;;;2.17;;
50104;SDS011;47690;39.202;-77.198;2024-02-21T13:53:10;3.08;;;2.22;;
50104;SDS011;47690;39.202;-77.198;2024-02-21T13:55:39;3.33;;;2.20;;
50104;SDS011;47690;39.202;-77.198;2024-02-21T13:58:08;3.05;;;2.22;;
50104;SDS011;47690;39.202;-77.198;2024-02-21T14:00:36;3.13;;;2.15;;
50104;SDS011;47690;39.202;-77.198;2024-02-21T14:03:05;2.72;;;2.22;;
50104;SDS011;47690;39.202;-77.198;2024-02-21T14:05:34;3.33;;;2.33;;
50104;SDS011;47690;39.202;-77.198;2024-02-21T14:08:06;2.55;;;2.10;;
50104;SDS011;47690;39.202;-77.198;2024-02-21T14:10:38;2.28;;;2.08;;
50104;SDS011;47690;39.202;-77.198;2024-02-21T14:13:07;2.58;;;2.13;;
50104;SDS011;47690;39.202;-77.198;2024-02-21T14:15:36;3.13;;;2.20;;
50104;SDS011;47690;39.202;-77.198;2024-02-21T14:18:05;2.92;;;2.30;;
50104;SDS011;47690;39.202;-77.198;2024-02-21T14:20:39;3.80;;;2.40;;
50104;SDS011;47690;39.202;-77.198;2024-02-21T14:23:08;3.42;;;2.10;;
50104;SDS011;47690;39.202;-77.198;2024-02-21T14:25:38;3.10;;;2.00;;
50104;SDS011;47690;39.202;-77.198;2024-02-21T14:28:07;2.15;;;1.95;;
50104;SDS011;47690;39.202;-77.198;2024-02-21T14:30:37;2.20;;;2.00;;
50104;SDS011;47690;39.202;-77.198;2024-02-21T14:33:07;2.67;;;2.00;;
50104;SDS011;47690;39.202;-77.198;2024-02-21T14:35:38;2.92;;;1.98;;
50104;SDS011;47690;39.202;-77.198;2024-02-21T14:38:07;1.88;;;1.77;;
50104;SDS011;47690;39.202;-77.198;2024-02-21T14:40:35;2.22;;;2.03;;